createdAt,value
2024-02-14T00:03:33.062Z,2.93
2024-02-14T00:08:27.773Z,2.50
2024-02-14T00:13:31.966Z,2.50
2024-02-14T00:19:14.690Z,2.40
2024-02-14T00:25:05.811Z,2.40
2024-02-14T00:30:57.467Z,2.23
2024-02-14T00:36:41.280Z,2.10
2024-02-14T00:47:55.338Z,2.00
2024-02-14T00:53:26.754Z,1.83
2024-02-14T00:59:03.541Z,2.00
2024-02-14T01:04:26.558Z,2.13
2024-02-14T01:10:12.729Z,2.10
2024-02-14T01:22:16.632Z,1.83
2024-02-14T01:28:39.481Z,1.70
2024-02-14T01:34:41.833Z,1.60
2024-02-14T01:40:10.914Z,1.80
2024-02-14T01:46:31.664Z,2.17
2024-02-14T01:57:27.179Z,1.60
2024-02-14T02:02:49.716Z,1.80
2024-02-14T02:08:36.532Z,2.00
2024-02-14T02:19:52.121Z,1.77
2024-02-14T02:32:26.374Z,1.87
2024-02-14T02:37:58.873Z,1.70
2024-02-14T02:43:17.765Z,1.83
2024-02-14T02:48:39.205Z,1.70
2024-02-14T02:59:18.220Z,1.70
2024-02-14T03:04:51.685Z,1.70
2024-02-14T03:11:07.132Z,1.77
2024-02-14T03:17:29.721Z,1.37
2024-02-14T03:23:48.994Z,1.33
2024-02-14T03:29:25.324Z,1.30
2024-02-14T03:34:44.382Z,1.67
2024-02-14T03:40:02.774Z,1.60
2024-02-14T03:45:15.162Z,1.40
2024-02-14T03:50:43.017Z,1.87
2024-02-14T03:56:52.966Z,1.50
2024-02-14T04:01:55.764Z,1.27
2024-02-14T04:06:47.191Z,1.40
2024-02-14T04:12:07.496Z,1.60
2024-02-14T04:16:52.803Z,1.30
2024-02-14T04:21:36.304Z,1.30
2024-02-14T04:26:22.978Z,1.30
2024-02-14T04:31:08.467Z,1.37
2024-02-14T04:36:13.557Z,1.30
2024-02-14T04:40:58.144Z,1.30
2024-02-14T04:45:43.777Z,1.50
2024-02-14T04:50:35.024Z,1.20
2024-02-14T04:55:24.603Z,1.30
2024-02-14T05:00:12.547Z,1.20
2024-02-14T05:04:56.307Z,1.23
2024-02-14T05:09:49.379Z,1.20
2024-02-14T05:14:33.054Z,1.40
2024-02-14T05:19:23.132Z,1.33
2024-02-14T05:24:09.434Z,1.20
2024-02-14T05:29:02.078Z,1.10
2024-02-14T05:33:46.375Z,1.30
2024-02-14T05:38:35.513Z,1.57
2024-02-14T05:43:21.140Z,1.13
2024-02-14T05:48:13.917Z,1.13
2024-02-14T05:52:58.890Z,1.37
2024-02-14T05:57:45.942Z,1.30
2024-02-14T06:02:35.445Z,1.00
2024-02-14T06:07:22.805Z,1.10
2024-02-14T06:12:12.256Z,1.07
2024-02-14T06:16:57.807Z,1.03
2024-02-14T06:21:46.858Z,1.00
2024-02-14T06:26:34.732Z,1.20
2024-02-14T06:31:25.000Z,1.93
2024-02-14T06:36:08.656Z,1.20
2024-02-14T06:40:59.912Z,1.50
2024-02-14T06:45:46.999Z,1.30
2024-02-14T06:50:50.484Z,1.70
2024-02-14T06:55:36.376Z,1.40
2024-02-14T07:00:24.286Z,1.93
2024-02-14T07:05:17.385Z,1.40
2024-02-14T07:10:00.809Z,1.20
2024-02-14T07:14:52.783Z,1.20
2024-02-14T07:19:39.870Z,1.10
2024-02-14T07:24:25.403Z,0.93
2024-02-14T07:29:13.340Z,1.10
2024-02-14T07:34:00.167Z,0.90
2024-02-14T07:38:48.909Z,1.00
2024-02-14T07:43:41.206Z,1.40
2024-02-14T07:48:26.583Z,2.40
2024-02-14T07:53:13.974Z,1.47
2024-02-14T07:58:03.317Z,1.10
2024-02-14T08:02:50.798Z,1.20
2024-02-14T08:07:40.437Z,1.10
2024-02-14T08:12:26.834Z,1.03
2024-02-14T08:17:16.396Z,1.47
2024-02-14T08:22:03.764Z,1.10
2024-02-14T08:26:49.363Z,1.17
2024-02-14T08:31:39.078Z,1.60
2024-02-14T08:36:25.072Z,1.73
2024-02-14T08:41:15.476Z,1.10
2024-02-14T08:46:00.195Z,1.00
2024-02-14T08:50:47.160Z,1.27
2024-02-14T08:55:37.975Z,0.90
2024-02-14T09:00:25.983Z,1.20
2024-02-14T09:05:16.050Z,1.27
2024-02-14T09:10:00.272Z,1.17
2024-02-14T09:14:50.575Z,1.13
2024-02-14T09:19:39.141Z,1.30
2024-02-14T09:24:26.346Z,1.33
2024-02-14T09:29:16.950Z,1.27
2024-02-14T09:34:02.785Z,1.10
2024-02-14T09:39:21.361Z,1.20
2024-02-14T09:44:13.635Z,1.30
2024-02-14T09:49:00.980Z,1.10
2024-02-14T09:53:47.053Z,1.30
2024-02-14T09:58:37.684Z,1.00
2024-02-14T10:03:22.932Z,1.50
2024-02-14T10:08:13.933Z,1.60
2024-02-14T10:12:58.071Z,1.23
2024-02-14T10:24:41.966Z,1.00
2024-02-14T10:42:38.064Z,1.63
2024-02-14T10:48:15.500Z,1.20
2024-02-14T10:54:08.436Z,1.70
2024-02-14T11:00:41.309Z,1.10
2024-02-14T11:12:48.060Z,1.27
2024-02-14T11:18:22.918Z,1.03
2024-02-14T11:24:22.052Z,0.90
2024-02-14T11:29:51.415Z,0.90
2024-02-14T11:35:12.091Z,1.00
2024-02-14T11:40:47.602Z,1.00
2024-02-14T11:46:20.435Z,1.10
2024-02-14T11:51:44.016Z,1.00
2024-02-14T12:04:26.146Z,1.07
2024-02-14T12:09:33.475Z,1.10
2024-02-14T12:15:19.487Z,0.90
2024-02-14T12:20:32.110Z,0.97
2024-02-14T12:26:17.864Z,1.10
2024-02-14T12:31:38.242Z,0.70
2024-02-14T12:43:36.369Z,1.17
2024-02-14T12:49:12.196Z,0.90
2024-02-14T12:59:56.142Z,0.87
2024-02-14T13:06:33.954Z,1.00
2024-02-14T13:11:23.129Z,1.10
2024-02-14T13:16:45.654Z,1.00
2024-02-14T13:22:02.588Z,0.90
2024-02-14T13:27:21.971Z,1.23
2024-02-14T13:45:17.208Z,1.20
2024-02-14T14:13:32.174Z,1.37
2024-02-14T14:19:02.348Z,1.20
2024-02-14T14:24:42.436Z,1.50
2024-02-14T14:36:30.575Z,0.90
2024-02-14T14:42:20.722Z,1.07
2024-02-14T14:47:41.127Z,1.20
2024-02-14T14:54:36.034Z,0.90
2024-02-14T14:59:41.867Z,1.10
2024-02-14T15:05:02.840Z,1.30
2024-02-14T15:11:19.859Z,1.13
2024-02-14T15:17:13.950Z,1.20
2024-02-14T15:22:16.157Z,1.30
2024-02-14T15:27:22.343Z,1.20
2024-02-14T15:32:31.218Z,1.47
2024-02-14T15:37:31.355Z,1.10
2024-02-14T15:43:39.308Z,1.40
2024-02-14T15:48:40.089Z,1.50
2024-02-14T16:06:17.643Z,1.33
2024-02-14T16:12:08.735Z,1.40
2024-02-14T16:18:30.361Z,1.33
2024-02-14T16:24:40.666Z,1.60
2024-02-14T16:29:33.437Z,1.50
2024-02-14T16:34:17.588Z,1.70
2024-02-14T16:39:08.744Z,1.20
2024-02-14T16:43:53.171Z,1.40
2024-02-14T16:48:41.192Z,2.00
2024-02-14T16:53:30.668Z,1.90
2024-02-14T16:58:17.365Z,1.87
2024-02-14T17:03:12.185Z,1.90
2024-02-14T17:08:11.914Z,2.17
2024-02-14T17:12:57.302Z,1.50
2024-02-14T17:17:50.629Z,1.40
2024-02-14T17:22:34.171Z,1.30
2024-02-14T17:27:21.864Z,1.77
2024-02-14T17:32:23.629Z,1.60
2024-02-14T17:37:15.643Z,1.90
2024-02-14T17:42:01.565Z,2.37
2024-02-14T17:46:49.622Z,1.70
2024-02-14T17:51:44.645Z,1.50
2024-02-14T17:56:38.683Z,1.70
2024-02-14T18:01:28.154Z,2.17
2024-02-14T18:06:16.278Z,1.97
2024-02-14T18:11:05.502Z,1.70
2024-02-14T18:15:53.808Z,1.90
2024-02-14T18:20:40.362Z,1.83
2024-02-14T18:25:32.966Z,1.70
2024-02-14T18:30:19.589Z,1.50
2024-02-14T18:35:05.960Z,1.70
2024-02-14T18:39:55.033Z,2.37
2024-02-14T18:44:43.507Z,1.70
2024-02-14T18:49:29.351Z,1.60
2024-02-14T18:54:24.573Z,1.63
2024-02-14T18:59:19.710Z,1.83
2024-02-14T19:04:14.272Z,2.00
2024-02-14T19:08:58.068Z,2.10
2024-02-14T19:13:41.911Z,1.80
2024-02-14T19:18:26.828Z,1.47
2024-02-14T19:23:23.700Z,1.10
2024-02-14T19:28:10.675Z,1.30
2024-02-14T19:32:57.380Z,1.50
2024-02-14T19:37:47.018Z,1.40
2024-02-14T19:42:32.359Z,1.73
2024-02-14T19:47:24.805Z,1.53
2024-02-14T19:52:12.813Z,1.70
2024-02-14T19:56:58.643Z,1.50
2024-02-14T20:01:46.232Z,1.60
2024-02-14T20:06:34.301Z,1.97
2024-02-14T20:11:19.496Z,1.77
2024-02-14T20:16:09.226Z,1.77
2024-02-14T20:20:58.585Z,1.80
2024-02-14T20:25:47.418Z,2.13
2024-02-14T20:30:33.761Z,1.70
2024-02-14T20:35:23.515Z,1.97
2024-02-14T20:40:27.106Z,1.57
2024-02-14T20:45:14.056Z,1.50
2024-02-14T20:50:03.387Z,1.10
2024-02-14T20:54:49.088Z,1.33
2024-02-14T20:59:38.061Z,1.07
2024-02-14T21:04:27.769Z,1.20
2024-02-14T21:09:15.035Z,1.13
2024-02-14T21:14:04.722Z,1.00
2024-02-14T21:18:50.257Z,0.97
2024-02-14T21:23:38.721Z,1.20
2024-02-14T21:28:28.119Z,1.10
2024-02-14T21:33:15.438Z,1.03
2024-02-14T21:38:01.515Z,1.10
2024-02-14T21:42:51.107Z,1.13
2024-02-14T21:47:41.127Z,1.50
2024-02-14T21:52:28.560Z,1.30
2024-02-14T21:57:31.642Z,1.20
2024-02-14T22:02:18.280Z,1.37
2024-02-14T22:07:09.770Z,1.10
2024-02-14T22:11:53.254Z,1.10
2024-02-14T22:16:41.222Z,1.20
2024-02-14T22:21:29.470Z,1.10
2024-02-14T22:36:48.285Z,1.20
2024-02-14T22:47:26.731Z,1.10
2024-02-14T22:52:47.460Z,1.50
2024-02-14T22:57:43.021Z,1.23
2024-02-14T23:02:44.864Z,1.77
2024-02-14T23:07:33.739Z,1.63
2024-02-14T23:12:23.573Z,1.50
2024-02-14T23:17:43.384Z,1.40
2024-02-14T23:22:43.992Z,1.13
2024-02-14T23:27:30.939Z,1.30
2024-02-14T23:32:54.021Z,1.87
2024-02-14T23:38:30.754Z,1.33
2024-02-14T23:43:33.703Z,1.00
2024-02-14T23:48:36.837Z,1.40
2024-02-14T23:53:27.394Z,1.33
2024-02-14T23:58:57.649Z,1.10
